sensor_id;sensor_type;location;lat;lon;timestamp;P1;durP1;ratioP1;P2;durP2;ratioP2
14052;SDS011;7101;51.600;7.310;2023-04-10T00:00:08;34.17;;;24.13;;
14052;SDS011;7101;51.600;7.310;2023-04-10T00:02:36;36.20;;;25.33;;
14052;SDS011;7101;51.600;7.310;2023-04-10T00:05:06;33.75;;;25.00;;
14052;SDS011;7101;51.600;7.310;2023-04-10T00:07:37;33.67;;;25.00;;
14052;SDS011;7101;51.600;7.310;2023-04-10T00:10:05;37.05;;;26.38;;
14052;SDS011;7101;51.600;7.310;2023-04-10T00:12:34;35.55;;;24.45;;
14052;SDS011;7101;51.600;7.310;2023-04-10T00:15:05;36.30;;;25.52;;
14052;SDS011;7101;51.600;7.310;2023-04-10T00:17:33;34.20;;;25.55;;
14052;SDS011;7101;51.600;7.310;2023-04-10T00:20:00;35.92;;;25.73;;
14052;SDS011;7101;51.600;7.310;2023-04-10T00:22:29;36.20;;;26.38;;
14052;SDS011;7101;51.600;7.310;2023-04-10T00:24:58;35.47;;;25.02;;
14052;SDS011;7101;51.600;7.310;2023-04-10T00:27:25;37.22;;;25.63;;
14052;SDS011;7101;51.600;7.310;2023-04-10T00:29:52;36.58;;;25.25;;
14052;SDS011;7101;51.600;7.310;2023-04-10T00:32:21;33.40;;;25.33;;
14052;SDS011;7101;51.600;7.310;2023-04-10T00:34:48;35.63;;;26.38;;
14052;SDS011;7101;51.600;7.310;2023-04-10T00:37:18;42.50;;;27.15;;
14052;SDS011;7101;51.600;7.310;2023-04-10T00:39:45;37.92;;;26.50;;
14052;SDS011;7101;51.600;7.310;2023-04-10T00:42:14;40.72;;;29.65;;
14052;SDS011;7101;51.600;7.310;2023-04-10T00:44:42;39.65;;;30.35;;
14052;SDS011;7101;51.600;7.310;2023-04-10T00:47:10;46.22;;;31.08;;
14052;SDS011;7101;51.600;7.310;2023-04-10T00:49:39;43.17;;;31.95;;
14052;SDS011;7101;51.600;7.310;2023-04-10T00:52:06;46.33;;;33.20;;
14052;SDS011;7101;51.600;7.310;2023-04-10T00:54:33;48.15;;;34.35;;
14052;SDS011;7101;51.600;7.310;2023-04-10T00:57:01;47.20;;;32.45;;
14052;SDS011;7101;51.600;7.310;2023-04-10T00:59:33;48.17;;;35.00;;
14052;SDS011;7101;51.600;7.310;2023-04-10T01:02:06;52.78;;;36.17;;
14052;SDS011;7101;51.600;7.310;2023-04-10T01:04:34;52.90;;;36.15;;
14052;SDS011;7101;51.600;7.310;2023-04-10T01:07:09;52.35;;;36.72;;
14052;SDS011;7101;51.600;7.310;2023-04-10T01:09:47;52.97;;;35.63;;
14052;SDS011;7101;51.600;7.310;2023-04-10T01:12:27;54.83;;;37.22;;
14052;SDS011;7101;51.600;7.310;2023-04-10T01:15:11;52.72;;;35.83;;
14052;SDS011;7101;51.600;7.310;2023-04-10T01:17:42;52.55;;;36.15;;
14052;SDS011;7101;51.600;7.310;2023-04-10T01:20:17;52.95;;;35.53;;
14052;SDS011;7101;51.600;7.310;2023-04-10T01:23:05;51.40;;;36.42;;
14052;SDS011;7101;51.600;7.310;2023-04-10T01:25:53;54.17;;;36.30;;
14052;SDS011;7101;51.600;7.310;2023-04-10T01:31:28;51.20;;;35.92;;
14052;SDS011;7101;51.600;7.310;2023-04-10T01:34:06;53.97;;;37.25;;
14052;SDS011;7101;51.600;7.310;2023-04-10T01:36:37;54.05;;;37.70;;
14052;SDS011;7101;51.600;7.310;2023-04-10T01:39:13;54.85;;;37.53;;
14052;SDS011;7101;51.600;7.310;2023-04-10T01:41:44;53.63;;;37.78;;
14052;SDS011;7101;51.600;7.310;2023-04-10T01:44:14;50.00;;;35.30;;
14052;SDS011;7101;51.600;7.310;2023-04-10T01:46:43;54.15;;;37.75;;
14052;SDS011;7101;51.600;7.310;2023-04-10T01:49:11;52.08;;;35.97;;
14052;SDS011;7101;51.600;7.310;2023-04-10T01:51:41;53.83;;;38.75;;
14052;SDS011;7101;51.600;7.310;2023-04-10T01:54:10;53.47;;;37.60;;
14052;SDS011;7101;51.600;7.310;2023-04-10T01:56:42;55.10;;;37.80;;
14052;SDS011;7101;51.600;7.310;2023-04-10T01:59:10;58.50;;;39.45;;
14052;SDS011;7101;51.600;7.310;2023-04-10T02:01:39;54.72;;;39.15;;
14052;SDS011;7101;51.600;7.310;2023-04-10T02:04:08;54.67;;;38.63;;
14052;SDS011;7101;51.600;7.310;2023-04-10T02:06:36;54.30;;;37.88;;
14052;SDS011;7101;51.600;7.310;2023-04-10T02:09:14;54.92;;;38.88;;
14052;SDS011;7101;51.600;7.310;2023-04-10T02:11:50;58.53;;;39.17;;
14052;SDS011;7101;51.600;7.310;2023-04-10T02:14:27;58.47;;;39.53;;
14052;SDS011;7101;51.600;7.310;2023-04-10T02:17:00;59.60;;;40.67;;
14052;SDS011;7101;51.600;7.310;2023-04-10T02:19:28;58.53;;;40.53;;
14052;SDS011;7101;51.600;7.310;2023-04-10T02:22:05;58.40;;;40.75;;
14052;SDS011;7101;51.600;7.310;2023-04-10T02:24:34;58.15;;;40.40;;
14052;SDS011;7101;51.600;7.310;2023-04-10T02:27:04;55.65;;;39.75;;
14052;SDS011;7101;51.600;7.310;2023-04-10T02:29:32;58.08;;;39.47;;
14052;SDS011;7101;51.600;7.310;2023-04-10T02:32:06;55.53;;;37.35;;
14052;SDS011;7101;51.600;7.310;2023-04-10T02:34:33;58.50;;;37.88;;
14052;SDS011;7101;51.600;7.310;2023-04-10T02:37:01;58.10;;;38.63;;
14052;SDS011;7101;51.600;7.310;2023-04-10T02:39:30;53.25;;;36.28;;
14052;SDS011;7101;51.600;7.310;2023-04-10T02:41:59;53.88;;;37.63;;
14052;SDS011;7101;51.600;7.310;2023-04-10T02:44:26;53.95;;;37.75;;
14052;SDS011;7101;51.600;7.310;2023-04-10T02:46:53;51.22;;;36.40;;
14052;SDS011;7101;51.600;7.310;2023-04-10T02:49:22;52.00;;;35.80;;
14052;SDS011;7101;51.600;7.310;2023-04-10T02:51:50;51.75;;;35.22;;
14052;SDS011;7101;51.600;7.310;2023-04-10T02:54:19;50.50;;;35.42;;
14052;SDS011;7101;51.600;7.310;2023-04-10T02:56:48;48.40;;;33.75;;
14052;SDS011;7101;51.600;7.310;2023-04-10T02:59:17;48.20;;;33.47;;
14052;SDS011;7101;51.600;7.310;2023-04-10T03:01:47;48.22;;;33.42;;
14052;SDS011;7101;51.600;7.310;2023-04-10T03:04:16;44.35;;;31.45;;
14052;SDS011;7101;51.600;7.310;2023-04-10T03:06:44;44.08;;;30.90;;
14052;SDS011;7101;51.600;7.310;2023-04-10T03:09:11;42.17;;;29.40;;
14052;SDS011;7101;51.600;7.310;2023-04-10T03:11:40;45.55;;;30.95;;
14052;SDS011;7101;51.600;7.310;2023-04-10T03:14:10;41.55;;;28.30;;
14052;SDS011;7101;51.600;7.310;2023-04-10T03:16:38;43.22;;;29.48;;
14052;SDS011;7101;51.600;7.310;2023-04-10T03:19:08;39.80;;;28.00;;
14052;SDS011;7101;51.600;7.310;2023-04-10T03:21:57;39.00;;;28.42;;
14052;SDS011;7101;51.600;7.310;2023-04-10T03:24:26;39.70;;;28.27;;
14052;SDS011;7101;51.600;7.310;2023-04-10T03:26:53;40.97;;;28.38;;
14052;SDS011;7101;51.600;7.310;2023-04-10T03:29:21;38.22;;;27.15;;
14052;SDS011;7101;51.600;7.310;2023-04-10T03:31:55;37.22;;;26.10;;
14052;SDS011;7101;51.600;7.310;2023-04-10T03:34:22;36.78;;;25.98;;
14052;SDS011;7101;51.600;7.310;2023-04-10T03:36:51;36.10;;;26.65;;
14052;SDS011;7101;51.600;7.310;2023-04-10T03:39:17;38.42;;;26.23;;
14052;SDS011;7101;51.600;7.310;2023-04-10T03:41:45;37.88;;;26.42;;
14052;SDS011;7101;51.600;7.310;2023-04-10T03:44:12;36.85;;;25.83;;
14052;SDS011;7101;51.600;7.310;2023-04-10T03:46:41;37.90;;;25.90;;
14052;SDS011;7101;51.600;7.310;2023-04-10T03:49:07;36.15;;;25.65;;
14052;SDS011;7101;51.600;7.310;2023-04-10T03:51:35;32.58;;;24.08;;
14052;SDS011;7101;51.600;7.310;2023-04-10T03:54:03;36.15;;;25.42;;
14052;SDS011;7101;51.600;7.310;2023-04-10T03:56:30;32.45;;;23.80;;
14052;SDS011;7101;51.600;7.310;2023-04-10T03:58:58;36.03;;;24.20;;
14052;SDS011;7101;51.600;7.310;2023-04-10T04:01:25;34.38;;;24.23;;
14052;SDS011;7101;51.600;7.310;2023-04-10T04:03:52;33.33;;;23.20;;
14052;SDS011;7101;51.600;7.310;2023-04-10T04:06:21;34.75;;;24.48;;
14052;SDS011;7101;51.600;7.310;2023-04-10T04:08:48;36.58;;;24.95;;
14052;SDS011;7101;51.600;7.310;2023-04-10T04:11:17;32.28;;;23.02;;
14052;SDS011;7101;51.600;7.310;2023-04-10T04:13:43;33.13;;;23.00;;
14052;SDS011;7101;51.600;7.310;2023-04-10T04:16:10;35.10;;;24.85;;
14052;SDS011;7101;51.600;7.310;2023-04-10T04:18:37;33.35;;;23.60;;
14052;SDS011;7101;51.600;7.310;2023-04-10T04:21:05;35.15;;;24.00;;
14052;SDS011;7101;51.600;7.310;2023-04-10T04:23:32;34.35;;;24.60;;
14052;SDS011;7101;51.600;7.310;2023-04-10T04:25:59;33.42;;;24.10;;
14052;SDS011;7101;51.600;7.310;2023-04-10T04:28:27;35.25;;;25.42;;
14052;SDS011;7101;51.600;7.310;2023-04-10T04:30:55;35.67;;;25.17;;
14052;SDS011;7101;51.600;7.310;2023-04-10T04:33:26;33.30;;;25.00;;
14052;SDS011;7101;51.600;7.310;2023-04-10T04:35:55;40.15;;;27.50;;
14052;SDS011;7101;51.600;7.310;2023-04-10T04:38:22;38.60;;;26.60;;
14052;SDS011;7101;51.600;7.310;2023-04-10T04:40:49;37.88;;;26.45;;
14052;SDS011;7101;51.600;7.310;2023-04-10T04:43:16;38.97;;;27.40;;
14052;SDS011;7101;51.600;7.310;2023-04-10T04:45:44;40.83;;;27.88;;
14052;SDS011;7101;51.600;7.310;2023-04-10T04:48:11;38.00;;;27.42;;
14052;SDS011;7101;51.600;7.310;2023-04-10T04:50:39;37.80;;;27.38;;
14052;SDS011;7101;51.600;7.310;2023-04-10T04:53:06;38.55;;;26.65;;
14052;SDS011;7101;51.600;7.310;2023-04-10T04:55:33;38.58;;;27.50;;
14052;SDS011;7101;51.600;7.310;2023-04-10T04:58:00;36.15;;;25.20;;
14052;SDS011;7101;51.600;7.310;2023-04-10T05:00:27;40.33;;;27.38;;
14052;SDS011;7101;51.600;7.310;2023-04-10T05:02:55;35.40;;;25.67;;
14052;SDS011;7101;51.600;7.310;2023-04-10T05:05:24;39.15;;;26.17;;
14052;SDS011;7101;51.600;7.310;2023-04-10T05:07:51;39.95;;;26.63;;
14052;SDS011;7101;51.600;7.310;2023-04-10T05:10:19;35.83;;;25.45;;
14052;SDS011;7101;51.600;7.310;2023-04-10T05:12:46;38.08;;;26.73;;
14052;SDS011;7101;51.600;7.310;2023-04-10T05:15:13;35.67;;;25.13;;
14052;SDS011;7101;51.600;7.310;2023-04-10T05:17:39;35.83;;;24.63;;
14052;SDS011;7101;51.600;7.310;2023-04-10T05:20:08;36.42;;;24.52;;
14052;SDS011;7101;51.600;7.310;2023-04-10T05:22:37;37.85;;;24.65;;
14052;SDS011;7101;51.600;7.310;2023-04-10T05:25:05;34.13;;;24.13;;
14052;SDS011;7101;51.600;7.310;2023-04-10T05:27:32;34.08;;;24.63;;
14052;SDS011;7101;51.600;7.310;2023-04-10T05:29:59;32.35;;;24.17;;
14052;SDS011;7101;51.600;7.310;2023-04-10T05:32:26;32.72;;;22.85;;
14052;SDS011;7101;51.600;7.310;2023-04-10T05:34:53;31.55;;;23.48;;
14052;SDS011;7101;51.600;7.310;2023-04-10T05:37:21;31.35;;;22.75;;
14052;SDS011;7101;51.600;7.310;2023-04-10T05:39:48;33.17;;;23.42;;
14052;SDS011;7101;51.600;7.310;2023-04-10T05:42:15;32.63;;;22.70;;
14052;SDS011;7101;51.600;7.310;2023-04-10T05:44:42;34.40;;;23.70;;
14052;SDS011;7101;51.600;7.310;2023-04-10T05:47:09;31.98;;;23.83;;
14052;SDS011;7101;51.600;7.310;2023-04-10T05:49:36;32.38;;;23.50;;
14052;SDS011;7101;51.600;7.310;2023-04-10T05:52:03;32.50;;;23.70;;
14052;SDS011;7101;51.600;7.310;2023-04-10T05:54:32;32.85;;;22.77;;
14052;SDS011;7101;51.600;7.310;2023-04-10T05:56:59;33.15;;;24.80;;
14052;SDS011;7101;51.600;7.310;2023-04-10T05:59:26;33.22;;;24.80;;
14052;SDS011;7101;51.600;7.310;2023-04-10T06:01:56;33.88;;;24.58;;
14052;SDS011;7101;51.600;7.310;2023-04-10T06:04:25;32.17;;;23.92;;
14052;SDS011;7101;51.600;7.310;2023-04-10T06:06:52;35.65;;;24.88;;
14052;SDS011;7101;51.600;7.310;2023-04-10T06:09:19;36.45;;;24.42;;
14052;SDS011;7101;51.600;7.310;2023-04-10T06:11:48;33.95;;;23.88;;
14052;SDS011;7101;51.600;7.310;2023-04-10T06:14:16;32.13;;;23.60;;
14052;SDS011;7101;51.600;7.310;2023-04-10T06:16:44;31.90;;;23.52;;
14052;SDS011;7101;51.600;7.310;2023-04-10T06:19:11;35.97;;;24.23;;
14052;SDS011;7101;51.600;7.310;2023-04-10T06:21:38;32.08;;;24.10;;
14052;SDS011;7101;51.600;7.310;2023-04-10T06:24:05;33.38;;;24.23;;
14052;SDS011;7101;51.600;7.310;2023-04-10T06:26:36;33.63;;;24.23;;
14052;SDS011;7101;51.600;7.310;2023-04-10T06:29:05;31.10;;;23.70;;
14052;SDS011;7101;51.600;7.310;2023-04-10T06:31:32;31.58;;;24.17;;
14052;SDS011;7101;51.600;7.310;2023-04-10T06:33:59;30.50;;;23.88;;
14052;SDS011;7101;51.600;7.310;2023-04-10T06:36:26;31.38;;;23.77;;
14052;SDS011;7101;51.600;7.310;2023-04-10T06:38:53;30.27;;;23.92;;
14052;SDS011;7101;51.600;7.310;2023-04-10T06:41:20;29.58;;;22.50;;
14052;SDS011;7101;51.600;7.310;2023-04-10T06:43:46;27.90;;;22.70;;
14052;SDS011;7101;51.600;7.310;2023-04-10T06:46:15;26.70;;;21.30;;
14052;SDS011;7101;51.600;7.310;2023-04-10T06:48:42;25.58;;;20.77;;
14052;SDS011;7101;51.600;7.310;2023-04-10T06:51:08;28.73;;;21.00;;
14052;SDS011;7101;51.600;7.310;2023-04-10T06:53:35;25.30;;;20.27;;
14052;SDS011;7101;51.600;7.310;2023-04-10T06:56:03;24.42;;;19.02;;
14052;SDS011;7101;51.600;7.310;2023-04-10T06:58:31;24.60;;;21.02;;
14052;SDS011;7101;51.600;7.310;2023-04-10T07:00:58;23.30;;;18.98;;
14052;SDS011;7101;51.600;7.310;2023-04-10T07:03:29;25.60;;;18.98;;
14052;SDS011;7101;51.600;7.310;2023-04-10T07:05:56;25.38;;;19.40;;
14052;SDS011;7101;51.600;7.310;2023-04-10T07:08:23;23.13;;;18.60;;
14052;SDS011;7101;51.600;7.310;2023-04-10T07:10:50;28.05;;;17.10;;
14052;SDS011;7101;51.600;7.310;2023-04-10T07:13:17;18.80;;;15.05;;
14052;SDS011;7101;51.600;7.310;2023-04-10T07:15:44;17.85;;;13.95;;
14052;SDS011;7101;51.600;7.310;2023-04-10T07:18:12;17.38;;;14.13;;
14052;SDS011;7101;51.600;7.310;2023-04-10T07:20:41;17.67;;;13.23;;
14052;SDS011;7101;51.600;7.310;2023-04-10T07:23:08;15.35;;;12.75;;
14052;SDS011;7101;51.600;7.310;2023-04-10T07:25:35;13.57;;;11.93;;
14052;SDS011;7101;51.600;7.310;2023-04-10T07:59:21;5.93;;;3.88;;
14052;SDS011;7101;51.600;7.310;2023-04-10T08:01:48;4.85;;;3.95;;
14052;SDS011;7101;51.600;7.310;2023-04-10T08:04:15;4.20;;;3.80;;
14052;SDS011;7101;51.600;7.310;2023-04-10T08:06:42;4.03;;;3.63;;
14052;SDS011;7101;51.600;7.310;2023-04-10T08:09:09;4.35;;;3.88;;
14052;SDS011;7101;51.600;7.310;2023-04-10T08:11:37;4.15;;;3.75;;
14052;SDS011;7101;51.600;7.310;2023-04-10T08:14:04;3.67;;;3.28;;
14052;SDS011;7101;51.600;7.310;2023-04-10T08:16:32;5.35;;;3.33;;
14052;SDS011;7101;51.600;7.310;2023-04-10T08:19:02;4.50;;;3.58;;
14052;SDS011;7101;51.600;7.310;2023-04-10T08:21:31;4.80;;;3.78;;
14052;SDS011;7101;51.600;7.310;2023-04-10T08:23:59;4.78;;;3.00;;
14052;SDS011;7101;51.600;7.310;2023-04-10T08:26:28;4.10;;;3.30;;
14052;SDS011;7101;51.600;7.310;2023-04-10T08:29:05;3.80;;;3.40;;
14052;SDS011;7101;51.600;7.310;2023-04-10T08:31:36;3.85;;;3.45;;
14052;SDS011;7101;51.600;7.310;2023-04-10T08:34:03;3.63;;;3.33;;
14052;SDS011;7101;51.600;7.310;2023-04-10T08:36:30;3.65;;;3.33;;
14052;SDS011;7101;51.600;7.310;2023-04-10T08:38:57;4.00;;;3.60;;
14052;SDS011;7101;51.600;7.310;2023-04-10T08:41:24;3.35;;;3.05;;
14052;SDS011;7101;51.600;7.310;2023-04-10T08:43:51;3.53;;;3.22;;
14052;SDS011;7101;51.600;7.310;2023-04-10T08:46:23;3.72;;;3.33;;
14052;SDS011;7101;51.600;7.310;2023-04-10T08:48:54;3.72;;;3.33;;
14052;SDS011;7101;51.600;7.310;2023-04-10T08:51:36;3.30;;;3.00;;
14052;SDS011;7101;51.600;7.310;2023-04-10T08:54:17;3.90;;;3.15;;
14052;SDS011;7101;51.600;7.310;2023-04-10T08:56:53;3.15;;;2.85;;
14052;SDS011;7101;51.600;7.310;2023-04-10T08:59:24;3.38;;;3.08;;
14052;SDS011;7101;51.600;7.310;2023-04-10T09:01:56;3.63;;;3.25;;
14052;SDS011;7101;51.600;7.310;2023-04-10T09:04:25;4.60;;;4.10;;
14052;SDS011;7101;51.600;7.310;2023-04-10T09:09:30;3.72;;;3.00;;
14052;SDS011;7101;51.600;7.310;2023-04-10T09:11:59;3.30;;;3.00;;
14052;SDS011;7101;51.600;7.310;2023-04-10T09:14:29;4.15;;;2.72;;
14052;SDS011;7101;51.600;7.310;2023-04-10T09:19:47;3.13;;;2.78;;
14052;SDS011;7101;51.600;7.310;2023-04-10T09:22:27;4.05;;;3.15;;
14052;SDS011;7101;51.600;7.310;2023-04-10T09:24:56;2.72;;;2.53;;
14052;SDS011;7101;51.600;7.310;2023-04-10T09:27:27;2.83;;;2.53;;
14052;SDS011;7101;51.600;7.310;2023-04-10T09:29:57;2.97;;;2.47;;
14052;SDS011;7101;51.600;7.310;2023-04-10T09:35:12;2.83;;;2.35;;
14052;SDS011;7101;51.600;7.310;2023-04-10T09:37:40;2.58;;;2.38;;
14052;SDS011;7101;51.600;7.310;2023-04-10T09:40:18;2.88;;;2.67;;
14052;SDS011;7101;51.600;7.310;2023-04-10T09:42:46;2.90;;;2.60;;
14052;SDS011;7101;51.600;7.310;2023-04-10T09:45:14;2.63;;;2.33;;
14052;SDS011;7101;51.600;7.310;2023-04-10T09:47:59;2.33;;;2.13;;
14052;SDS011;7101;51.600;7.310;2023-04-10T09:50:34;5.53;;;2.30;;
14052;SDS011;7101;51.600;7.310;2023-04-10T09:53:01;2.20;;;2.00;;
14052;SDS011;7101;51.600;7.310;2023-04-10T09:55:29;3.25;;;2.50;;
14052;SDS011;7101;51.600;7.310;2023-04-10T09:57:59;2.88;;;2.28;;
14052;SDS011;7101;51.600;7.310;2023-04-10T10:00:28;2.40;;;2.10;;
14052;SDS011;7101;51.600;7.310;2023-04-10T10:02:55;2.40;;;2.20;;
14052;SDS011;7101;51.600;7.310;2023-04-10T10:05:25;2.35;;;2.10;;
14052;SDS011;7101;51.600;7.310;2023-04-10T10:07:56;2.60;;;2.35;;
14052;SDS011;7101;51.600;7.310;2023-04-10T10:10:29;3.60;;;2.47;;
14052;SDS011;7101;51.600;7.310;2023-04-10T10:12:58;2.30;;;2.10;;
14052;SDS011;7101;51.600;7.310;2023-04-10T10:15:30;2.88;;;2.53;;
14052;SDS011;7101;51.600;7.310;2023-04-10T10:18:03;3.08;;;2.50;;
14052;SDS011;7101;51.600;7.310;2023-04-10T10:20:34;2.50;;;2.30;;
14052;SDS011;7101;51.600;7.310;2023-04-10T10:23:06;2.50;;;2.30;;
14052;SDS011;7101;51.600;7.310;2023-04-10T10:25:34;2.65;;;2.45;;
14052;SDS011;7101;51.600;7.310;2023-04-10T10:28:03;2.40;;;2.20;;
14052;SDS011;7101;51.600;7.310;2023-04-10T10:30:32;2.78;;;2.30;;
14052;SDS011;7101;51.600;7.310;2023-04-10T10:33:00;2.92;;;2.40;;
14052;SDS011;7101;51.600;7.310;2023-04-10T10:35:38;3.28;;;2.17;;
14052;SDS011;7101;51.600;7.310;2023-04-10T10:38:07;2.47;;;2.28;;
14052;SDS011;7101;51.600;7.310;2023-04-10T10:40:38;4.15;;;2.08;;
14052;SDS011;7101;51.600;7.310;2023-04-10T10:43:13;2.35;;;2.13;;
14052;SDS011;7101;51.600;7.310;2023-04-10T10:45:55;2.33;;;2.13;;
14052;SDS011;7101;51.600;7.310;2023-04-10T10:48:26;2.28;;;2.08;;
14052;SDS011;7101;51.600;7.310;2023-04-10T10:50:54;2.85;;;2.13;;
14052;SDS011;7101;51.600;7.310;2023-04-10T10:53:38;2.30;;;2.10;;
14052;SDS011;7101;51.600;7.310;2023-04-10T10:59:03;2.63;;;2.33;;
14052;SDS011;7101;51.600;7.310;2023-04-10T11:01:30;7.25;;;2.20;;
14052;SDS011;7101;51.600;7.310;2023-04-10T11:03:57;2.10;;;1.90;;
14052;SDS011;7101;51.600;7.310;2023-04-10T11:12:15;2.33;;;2.13;;
14052;SDS011;7101;51.600;7.310;2023-04-10T11:14:55;2.40;;;2.10;;
14052;SDS011;7101;51.600;7.310;2023-04-10T11:20:13;2.20;;;2.00;;
14052;SDS011;7101;51.600;7.310;2023-04-10T11:25:48;3.67;;;2.10;;
14052;SDS011;7101;51.600;7.310;2023-04-10T11:31:12;3.35;;;2.20;;
14052;SDS011;7101;51.600;7.310;2023-04-10T11:33:47;2.10;;;1.90;;
14052;SDS011;7101;51.600;7.310;2023-04-10T11:36:17;2.20;;;2.00;;
14052;SDS011;7101;51.600;7.310;2023-04-10T11:38:56;2.25;;;2.05;;
14052;SDS011;7101;51.600;7.310;2023-04-10T11:41:29;2.45;;;2.25;;
14052;SDS011;7101;51.600;7.310;2023-04-10T11:43:57;2.50;;;2.30;;
14052;SDS011;7101;51.600;7.310;2023-04-10T11:46:26;2.50;;;2.30;;
14052;SDS011;7101;51.600;7.310;2023-04-10T11:48:54;2.53;;;2.33;;
14052;SDS011;7101;51.600;7.310;2023-04-10T11:51:25;4.63;;;2.20;;
14052;SDS011;7101;51.600;7.310;2023-04-10T11:54:03;2.30;;;2.10;;
14052;SDS011;7101;51.600;7.310;2023-04-10T11:56:32;2.42;;;2.22;;
14052;SDS011;7101;51.600;7.310;2023-04-10T11:59:00;2.40;;;2.20;;
14052;SDS011;7101;51.600;7.310;2023-04-10T12:01:32;2.20;;;2.00;;
14052;SDS011;7101;51.600;7.310;2023-04-10T12:03:59;2.55;;;2.33;;
14052;SDS011;7101;51.600;7.310;2023-04-10T12:06:28;2.28;;;2.08;;
14052;SDS011;7101;51.600;7.310;2023-04-10T12:08:56;2.75;;;2.55;;
14052;SDS011;7101;51.600;7.310;2023-04-10T12:11:23;2.53;;;2.33;;
14052;SDS011;7101;51.600;7.310;2023-04-10T12:13:54;2.83;;;2.08;;
14052;SDS011;7101;51.600;7.310;2023-04-10T12:16:23;5.18;;;2.50;;
14052;SDS011;7101;51.600;7.310;2023-04-10T12:18:51;2.40;;;2.20;;
14052;SDS011;7101;51.600;7.310;2023-04-10T12:21:18;2.60;;;2.40;;
14052;SDS011;7101;51.600;7.310;2023-04-10T12:23:45;2.65;;;2.45;;
14052;SDS011;7101;51.600;7.310;2023-04-10T12:26:15;2.92;;;2.05;;
14052;SDS011;7101;51.600;7.310;2023-04-10T12:28:49;2.30;;;2.10;;
14052;SDS011;7101;51.600;7.310;2023-04-10T12:31:19;2.45;;;2.25;;
14052;SDS011;7101;51.600;7.310;2023-04-10T12:33:52;2.30;;;2.10;;
14052;SDS011;7101;51.600;7.310;2023-04-10T12:36:22;2.70;;;2.40;;
14052;SDS011;7101;51.600;7.310;2023-04-10T12:38:51;3.00;;;2.47;;
14052;SDS011;7101;51.600;7.310;2023-04-10T12:41:21;2.42;;;2.22;;
14052;SDS011;7101;51.600;7.310;2023-04-10T12:43:49;2.95;;;2.65;;
14052;SDS011;7101;51.600;7.310;2023-04-10T12:46:25;2.85;;;2.30;;
14052;SDS011;7101;51.600;7.310;2023-04-10T12:48:55;2.22;;;2.03;;
14052;SDS011;7101;51.600;7.310;2023-04-10T12:54:25;2.72;;;2.20;;
14052;SDS011;7101;51.600;7.310;2023-04-10T12:56:54;3.72;;;2.25;;
14052;SDS011;7101;51.600;7.310;2023-04-10T12:59:21;4.07;;;2.45;;
14052;SDS011;7101;51.600;7.310;2023-04-10T13:01:51;2.60;;;2.40;;
14052;SDS011;7101;51.600;7.310;2023-04-10T13:04:18;2.53;;;2.05;;
14052;SDS011;7101;51.600;7.310;2023-04-10T13:06:45;2.30;;;2.10;;
14052;SDS011;7101;51.600;7.310;2023-04-10T13:09:13;2.20;;;2.00;;
14052;SDS011;7101;51.600;7.310;2023-04-10T13:11:41;2.63;;;2.20;;
14052;SDS011;7101;51.600;7.310;2023-04-10T13:14:08;2.25;;;2.00;;
14052;SDS011;7101;51.600;7.310;2023-04-10T13:16:35;1.83;;;1.73;;
14052;SDS011;7101;51.600;7.310;2023-04-10T13:19:03;2.90;;;1.83;;
14052;SDS011;7101;51.600;7.310;2023-04-10T13:21:36;2.30;;;2.10;;
14052;SDS011;7101;51.600;7.310;2023-04-10T13:24:04;2.20;;;1.60;;
14052;SDS011;7101;51.600;7.310;2023-04-10T13:26:30;2.97;;;1.75;;
14052;SDS011;7101;51.600;7.310;2023-04-10T13:28:57;3.88;;;1.77;;
14052;SDS011;7101;51.600;7.310;2023-04-10T13:31:24;3.72;;;1.92;;
14052;SDS011;7101;51.600;7.310;2023-04-10T13:33:51;1.90;;;1.67;;
14052;SDS011;7101;51.600;7.310;2023-04-10T13:36:19;1.77;;;1.67;;
14052;SDS011;7101;51.600;7.310;2023-04-10T13:38:47;2.33;;;1.80;;
14052;SDS011;7101;51.600;7.310;2023-04-10T13:41:13;1.90;;;1.70;;
14052;SDS011;7101;51.600;7.310;2023-04-10T13:43:40;1.77;;;1.60;;
14052;SDS011;7101;51.600;7.310;2023-04-10T13:46:07;1.98;;;1.77;;
14052;SDS011;7101;51.600;7.310;2023-04-10T13:48:34;1.63;;;1.52;;
14052;SDS011;7101;51.600;7.310;2023-04-10T13:51:06;1.98;;;1.77;;
14052;SDS011;7101;51.600;7.310;2023-04-10T13:53:34;1.83;;;1.70;;
14052;SDS011;7101;51.600;7.310;2023-04-10T13:56:01;2.15;;;1.70;;
14052;SDS011;7101;51.600;7.310;2023-04-10T13:58:28;3.00;;;1.83;;
14052;SDS011;7101;51.600;7.310;2023-04-10T14:00:58;4.00;;;2.92;;
14052;SDS011;7101;51.600;7.310;2023-04-10T14:03:25;1.80;;;1.70;;
14052;SDS011;7101;51.600;7.310;2023-04-10T14:05:52;2.38;;;2.10;;
14052;SDS011;7101;51.600;7.310;2023-04-10T14:08:19;2.38;;;1.77;;
14052;SDS011;7101;51.600;7.310;2023-04-10T14:10:47;3.72;;;2.20;;
14052;SDS011;7101;51.600;7.310;2023-04-10T14:13:14;2.15;;;1.95;;
14052;SDS011;7101;51.600;7.310;2023-04-10T14:15:41;2.45;;;2.22;;
14052;SDS011;7101;51.600;7.310;2023-04-10T14:18:08;2.08;;;1.88;;
14052;SDS011;7101;51.600;7.310;2023-04-10T14:20:35;2.33;;;2.00;;
14052;SDS011;7101;51.600;7.310;2023-04-10T14:23:02;1.92;;;1.80;;
14052;SDS011;7101;51.600;7.310;2023-04-10T14:25:29;3.03;;;2.20;;
14052;SDS011;7101;51.600;7.310;2023-04-10T14:27:57;2.53;;;1.90;;
14052;SDS011;7101;51.600;7.310;2023-04-10T14:30:24;2.13;;;1.92;;
14052;SDS011;7101;51.600;7.310;2023-04-10T14:32:54;1.70;;;1.60;;
14052;SDS011;7101;51.600;7.310;2023-04-10T14:35:21;2.40;;;2.10;;
14052;SDS011;7101;51.600;7.310;2023-04-10T14:37:49;2.55;;;1.88;;
14052;SDS011;7101;51.600;7.310;2023-04-10T14:40:16;2.20;;;2.00;;
14052;SDS011;7101;51.600;7.310;2023-04-10T14:42:43;2.42;;;2.10;;
14052;SDS011;7101;51.600;7.310;2023-04-10T14:45:12;3.50;;;2.10;;
14052;SDS011;7101;51.600;7.310;2023-04-10T14:47:38;2.65;;;2.40;;
14052;SDS011;7101;51.600;7.310;2023-04-10T14:50:06;5.22;;;4.03;;
14052;SDS011;7101;51.600;7.310;2023-04-10T14:52:33;3.33;;;2.90;;
14052;SDS011;7101;51.600;7.310;2023-04-10T14:55:00;2.67;;;2.15;;
14052;SDS011;7101;51.600;7.310;2023-04-10T14:57:27;3.10;;;2.80;;
14052;SDS011;7101;51.600;7.310;2023-04-10T14:59:54;7.30;;;3.20;;
14052;SDS011;7101;51.600;7.310;2023-04-10T15:02:24;6.05;;;4.20;;
14052;SDS011;7101;51.600;7.310;2023-04-10T15:04:50;3.65;;;3.20;;
14052;SDS011;7101;51.600;7.310;2023-04-10T15:07:17;4.50;;;3.40;;
14052;SDS011;7101;51.600;7.310;2023-04-10T15:09:44;4.50;;;3.65;;
14052;SDS011;7101;51.600;7.310;2023-04-10T15:12:11;4.45;;;2.95;;
14052;SDS011;7101;51.600;7.310;2023-04-10T15:14:39;7.65;;;2.35;;
14052;SDS011;7101;51.600;7.310;2023-04-10T15:17:05;6.65;;;4.38;;
14052;SDS011;7101;51.600;7.310;2023-04-10T15:19:34;3.65;;;2.92;;
14052;SDS011;7101;51.600;7.310;2023-04-10T15:22:00;2.50;;;2.30;;
14052;SDS011;7101;51.600;7.310;2023-04-10T15:24:27;3.63;;;3.08;;
14052;SDS011;7101;51.600;7.310;2023-04-10T15:26:54;4.40;;;4.00;;
14052;SDS011;7101;51.600;7.310;2023-04-10T15:29:22;39.45;;;29.15;;
14052;SDS011;7101;51.600;7.310;2023-04-10T15:31:49;7.38;;;6.15;;
14052;SDS011;7101;51.600;7.310;2023-04-10T15:34:16;4.57;;;2.90;;
14052;SDS011;7101;51.600;7.310;2023-04-10T15:36:47;2.90;;;2.60;;
14052;SDS011;7101;51.600;7.310;2023-04-10T15:41:51;2.90;;;2.60;;
14052;SDS011;7101;51.600;7.310;2023-04-10T15:44:24;5.13;;;3.80;;
14052;SDS011;7101;51.600;7.310;2023-04-10T15:47:00;14.05;;;12.57;;
14052;SDS011;7101;51.600;7.310;2023-04-10T15:49:29;32.80;;;29.45;;
14052;SDS011;7101;51.600;7.310;2023-04-10T15:51:57;15.02;;;13.52;;
14052;SDS011;7101;51.600;7.310;2023-04-10T15:54:24;4.65;;;4.07;;
14052;SDS011;7101;51.600;7.310;2023-04-10T15:56:51;6.07;;;5.47;;
14052;SDS011;7101;51.600;7.310;2023-04-10T15:59:19;7.30;;;6.45;;
14052;SDS011;7101;51.600;7.310;2023-04-10T16:01:46;4.78;;;4.22;;
14052;SDS011;7101;51.600;7.310;2023-04-10T16:04:12;20.23;;;16.35;;